createdAt,value
2018-04-07T00:00:41.621Z,39.17
2018-04-07T00:01:44.845Z,42.80
2018-04-07T00:02:48.160Z,31.42
2018-04-07T00:03:51.399Z,21.12
2018-04-07T00:04:56.293Z,13.27
2018-04-07T00:05:59.538Z,18.42
2018-04-07T00:07:02.747Z,20.92
2018-04-07T00:08:05.979Z,15.05
2018-04-07T00:09:09.299Z,12.70
2018-04-07T00:10:12.492Z,11.63
2018-04-07T00:11:15.728Z,10.48
2018-04-07T00:12:19.709Z,11.20
2018-04-07T00:13:23.705Z,10.25
2018-04-07T00:14:27.690Z,10.23
2018-04-07T00:15:30.900Z,9.55
2018-04-07T00:16:34.140Z,16.25
2018-04-07T00:17:37.365Z,17.55
2018-04-07T00:18:41.343Z,22.40
2018-04-07T00:19:45.318Z,17.90
2018-04-07T00:20:48.558Z,27.35
2018-04-07T00:21:51.768Z,16.52
2018-04-07T00:22:55.028Z,20.70
2018-04-07T00:23:58.247Z,22.27
2018-04-07T00:25:01.458Z,27.33
2018-04-07T00:26:04.775Z,32.05
2018-04-07T00:27:08.021Z,13.52
2018-04-07T00:28:11.237Z,11.93
2018-04-07T00:29:14.475Z,10.88
2018-04-07T00:30:17.704Z,10.27
2018-04-07T00:31:20.926Z,11.32
2018-04-07T00:32:24.155Z,12.20
2018-04-07T00:33:28.142Z,12.07
2018-04-07T00:34:32.238Z,10.45
2018-04-07T00:35:36.265Z,11.32
2018-04-07T00:36:39.526Z,11.10
2018-04-07T00:37:43.602Z,10.57
2018-04-07T00:38:46.795Z,9.57
2018-04-07T00:39:50.022Z,9.73
2018-04-07T00:40:53.225Z,8.55
2018-04-07T00:41:56.453Z,10.00
2018-04-07T00:42:59.772Z,10.43
2018-04-07T00:44:03.024Z,10.65
2018-04-07T00:45:06.245Z,9.85
2018-04-07T00:46:09.466Z,9.82
2018-04-07T00:47:12.706Z,9.50
2018-04-07T00:48:15.936Z,9.30
2018-04-07T00:49:19.169Z,10.77
2018-04-07T00:50:22.398Z,10.45
2018-04-07T00:51:25.606Z,10.43
2018-04-07T00:52:41.611Z,10.50
2018-04-07T00:53:45.585Z,10.73
2018-04-07T00:54:49.564Z,10.70
2018-04-07T00:55:52.799Z,10.38
2018-04-07T00:56:56.027Z,10.60
2018-04-07T00:57:59.263Z,9.77
2018-04-07T00:59:02.441Z,11.60
2018-04-07T01:00:05.655Z,10.02
2018-04-07T01:01:08.861Z,11.12
2018-04-07T01:02:12.095Z,10.50
2018-04-07T01:03:15.428Z,10.73
2018-04-07T01:04:18.672Z,10.48
2018-04-07T01:05:21.884Z,10.77
2018-04-07T01:06:25.102Z,9.90
2018-04-07T01:07:29.081Z,10.52
2018-04-07T01:08:33.090Z,11.35
2018-04-07T01:09:36.301Z,10.45
2018-04-07T01:10:39.584Z,9.82
2018-04-07T01:11:43.547Z,9.52
2018-04-07T01:12:46.765Z,10.00
2018-04-07T01:13:50.741Z,10.15
2018-04-07T01:14:54.042Z,10.43
2018-04-07T01:15:58.036Z,9.23
2018-04-07T01:17:01.257Z,9.88
2018-04-07T01:18:05.310Z,11.73
2018-04-07T01:19:08.520Z,10.02
2018-04-07T01:20:11.739Z,10.30
2018-04-07T01:21:14.957Z,11.20
2018-04-07T01:22:18.174Z,9.55
2018-04-07T01:23:21.539Z,11.32
2018-04-07T01:24:25.303Z,11.38
2018-04-07T01:25:28.529Z,10.10
2018-04-07T01:26:32.513Z,9.95
2018-04-07T01:27:36.502Z,11.45
2018-04-07T01:28:39.713Z,10.20
2018-04-07T01:29:43.035Z,11.00
2018-04-07T01:30:46.244Z,11.35
2018-04-07T01:31:49.684Z,11.52
2018-04-07T01:32:52.885Z,11.05
2018-04-07T01:33:56.116Z,10.60
2018-04-07T01:35:00.300Z,11.27
2018-04-07T01:36:03.535Z,12.30
2018-04-07T01:37:06.766Z,11.18
2018-04-07T01:38:09.977Z,9.85
2018-04-07T01:39:14.044Z,11.15
2018-04-07T01:40:17.275Z,10.70
2018-04-07T01:41:20.545Z,10.55
2018-04-07T01:42:24.539Z,10.90
2018-04-07T01:43:28.548Z,12.05
2018-04-07T01:44:32.540Z,12.02
2018-04-07T01:45:36.541Z,10.90
2018-04-07T01:46:40.518Z,11.48
2018-04-07T01:47:43.772Z,11.00
2018-04-07T01:48:46.983Z,11.65
2018-04-07T01:49:50.193Z,10.90
2018-04-07T01:50:54.192Z,10.93
2018-04-07T01:51:58.198Z,11.12
2018-04-07T01:53:02.174Z,11.07
2018-04-07T01:54:05.391Z,10.75
2018-04-07T01:55:09.384Z,11.25
2018-04-07T01:56:13.412Z,12.10
2018-04-07T01:57:17.342Z,9.88
2018-04-07T01:58:20.744Z,10.27
2018-04-07T01:59:23.944Z,11.10
2018-04-07T02:00:27.938Z,11.95
2018-04-07T02:01:31.178Z,11.05
2018-04-07T02:02:34.387Z,10.55
2018-04-07T02:03:38.377Z,11.68
2018-04-07T02:04:41.637Z,10.05
2018-04-07T02:05:44.848Z,11.95
2018-04-07T02:06:48.078Z,9.98
2018-04-07T02:07:52.048Z,10.65
2018-04-07T02:08:55.266Z,11.63
2018-04-07T02:09:58.520Z,10.73
2018-04-07T02:11:02.499Z,11.65
2018-04-07T02:12:05.721Z,11.07
2018-04-07T02:13:09.701Z,10.02
2018-04-07T02:14:13.687Z,10.75
2018-04-07T02:15:16.922Z,11.27
2018-04-07T02:16:20.140Z,10.98
2018-04-07T02:17:23.401Z,11.45
2018-04-07T02:18:26.685Z,11.57
2018-04-07T02:19:30.648Z,11.02
2018-04-07T02:20:34.620Z,12.13
2018-04-07T02:21:38.616Z,11.00
2018-04-07T02:22:41.845Z,10.90
2018-04-07T02:23:45.070Z,11.40
2018-04-07T02:24:48.282Z,10.18
2018-04-07T02:25:52.267Z,11.05
2018-04-07T02:26:55.491Z,11.20
2018-04-07T02:27:58.717Z,10.80
2018-04-07T02:29:01.928Z,10.32
2018-04-07T02:30:05.188Z,11.18
2018-04-07T02:31:08.396Z,10.20
2018-04-07T02:32:12.374Z,11.57
2018-04-07T02:33:15.574Z,10.77
2018-04-07T02:34:19.567Z,10.25
2018-04-07T02:35:22.788Z,11.45
2018-04-07T02:36:26.766Z,11.30
2018-04-07T02:37:30.789Z,10.88
2018-04-07T02:38:34.007Z,12.55
2018-04-07T02:39:37.249Z,11.30
2018-04-07T02:40:41.235Z,11.55
2018-04-07T02:41:45.208Z,10.57
2018-04-07T02:42:48.410Z,11.48
2018-04-07T02:43:52.392Z,11.00
2018-04-07T02:44:55.618Z,11.45
2018-04-07T02:45:58.844Z,10.90
2018-04-07T02:47:02.064Z,11.50
2018-04-07T02:48:06.086Z,11.65
2018-04-07T02:49:10.066Z,11.75
2018-04-07T02:50:14.084Z,11.63
2018-04-07T02:51:17.311Z,12.05
2018-04-07T02:52:20.527Z,12.73
2018-04-07T02:53:24.575Z,12.48
2018-04-07T02:54:27.816Z,13.48
2018-04-07T02:55:31.015Z,11.35
2018-04-07T02:56:34.236Z,11.65
2018-04-07T02:57:37.462Z,12.35
2018-04-07T02:58:40.664Z,13.05
2018-04-07T02:59:43.882Z,11.95
2018-04-07T03:00:47.115Z,11.68
2018-04-07T03:01:50.352Z,11.90
2018-04-07T03:02:53.560Z,12.25
2018-04-07T03:03:56.791Z,12.65
2018-04-07T03:05:00.026Z,12.07
2018-04-07T03:06:03.235Z,12.07
2018-04-07T03:07:06.451Z,11.38
2018-04-07T03:08:09.666Z,11.90
2018-04-07T03:09:12.886Z,12.05
2018-04-07T03:10:16.109Z,12.82
2018-04-07T03:11:19.339Z,12.52
2018-04-07T03:12:23.346Z,12.48
2018-04-07T03:13:27.320Z,11.45
2018-04-07T03:14:30.563Z,12.18
2018-04-07T03:15:33.777Z,12.75
2018-04-07T03:16:37.833Z,13.38
2018-04-07T03:17:41.049Z,12.30
2018-04-07T03:18:44.263Z,12.55
2018-04-07T03:19:48.265Z,13.38
2018-04-07T03:20:52.241Z,12.63
2018-04-07T03:21:55.481Z,12.05
2018-04-07T03:22:58.722Z,12.32
2018-04-07T03:24:01.948Z,11.65
2018-04-07T03:25:05.180Z,12.57
2018-04-07T03:26:08.536Z,12.75
2018-04-07T03:27:11.903Z,12.20
2018-04-07T03:28:15.139Z,13.60
2018-04-07T03:29:18.353Z,12.35
2018-04-07T03:30:22.363Z,12.43
2018-04-07T03:31:26.332Z,12.95
2018-04-07T03:32:30.309Z,13.13
2018-04-07T03:33:33.561Z,12.68
2018-04-07T03:34:36.785Z,13.35
2018-04-07T03:35:39.987Z,12.48
2018-04-07T03:36:43.977Z,12.80
2018-04-07T03:37:47.188Z,11.05
2018-04-07T03:38:50.405Z,14.27
2018-04-07T03:39:53.694Z,11.18
2018-04-07T03:40:56.913Z,12.50
2018-04-07T03:42:00.108Z,12.45
2018-04-07T03:43:03.360Z,12.30
2018-04-07T03:44:06.676Z,13.32
2018-04-07T03:45:10.648Z,11.77
2018-04-07T03:46:13.888Z,14.00
2018-04-07T03:47:17.327Z,11.38
2018-04-07T03:48:20.536Z,13.20
2018-04-07T03:49:23.763Z,12.02
2018-04-07T03:50:27.008Z,12.70
2018-04-07T03:51:30.213Z,11.50
2018-04-07T03:52:33.422Z,11.95
2018-04-07T03:53:36.636Z,12.25
2018-04-07T03:54:40.609Z,12.90
2018-04-07T03:55:45.335Z,12.95
2018-04-07T03:56:48.556Z,12.50
2018-04-07T03:57:51.799Z,11.75
2018-04-07T03:58:55.087Z,12.23
2018-04-07T03:59:58.311Z,12.75
2018-04-07T04:01:01.570Z,12.18
2018-04-07T04:02:05.560Z,12.95
2018-04-07T04:03:09.532Z,12.05
2018-04-07T04:04:12.751Z,12.60
2018-04-07T04:05:16.721Z,12.90
2018-04-07T04:06:19.936Z,11.45
2018-04-07T04:07:23.177Z,11.48
2018-04-07T04:08:26.403Z,12.40
2018-04-07T04:09:30.386Z,11.55
2018-04-07T04:10:33.599Z,11.93
2018-04-07T04:11:36.865Z,13.57
2018-04-07T04:12:40.853Z,10.95
2018-04-07T04:13:44.847Z,11.30
2018-04-07T04:14:48.160Z,13.40
2018-04-07T04:15:51.417Z,12.32
2018-04-07T04:16:54.627Z,12.40
2018-04-07T04:17:58.600Z,12.25
2018-04-07T04:19:01.837Z,12.40
2018-04-07T04:20:05.052Z,12.50
2018-04-07T04:21:08.276Z,12.93
2018-04-07T04:22:12.248Z,12.48
2018-04-07T04:23:15.486Z,11.65
2018-04-07T04:24:18.757Z,13.70
2018-04-07T04:25:22.712Z,14.15
2018-04-07T04:26:25.930Z,13.20
2018-04-07T04:27:29.263Z,12.10
2018-04-07T04:28:32.445Z,12.45
2018-04-07T04:29:35.671Z,13.85
2018-04-07T04:30:39.671Z,12.52
2018-04-07T04:31:43.732Z,14.02
2018-04-07T04:32:46.917Z,12.80
2018-04-07T04:33:50.128Z,13.82
2018-04-07T04:34:54.116Z,11.90
2018-04-07T04:35:57.325Z,12.52
2018-04-07T04:37:00.597Z,11.77
2018-04-07T04:38:04.570Z,14.45
2018-04-07T04:39:07.802Z,12.57
2018-04-07T04:40:11.023Z,13.68
2018-04-07T04:41:14.248Z,13.82
2018-04-07T04:42:18.234Z,12.60
2018-04-07T04:43:21.458Z,13.70
2018-04-07T04:44:25.474Z,13.62
2018-04-07T04:45:28.686Z,13.18
2018-04-07T04:46:31.899Z,12.88
2018-04-07T04:47:35.119Z,12.90
2018-04-07T04:48:38.343Z,13.10
2018-04-07T04:49:41.544Z,13.02
2018-04-07T04:50:45.572Z,13.38
2018-04-07T04:51:48.875Z,13.10
2018-04-07T04:52:52.102Z,13.80
2018-04-07T04:53:56.109Z,13.05
2018-04-07T04:55:00.135Z,13.18
2018-04-07T04:56:04.103Z,11.88
2018-04-07T04:57:07.318Z,12.88
2018-04-07T04:58:10.540Z,12.80
2018-04-07T04:59:13.758Z,12.88
2018-04-07T05:00:17.769Z,12.75
2018-04-07T05:01:21.747Z,12.82
2018-04-07T05:02:24.969Z,11.93
2018-04-07T05:03:28.242Z,12.55
2018-04-07T05:04:31.483Z,14.15
2018-04-07T05:05:34.765Z,12.80
2018-04-07T05:06:38.018Z,12.75
2018-04-07T05:07:41.247Z,12.32
2018-04-07T05:08:44.452Z,11.63
2018-04-07T05:09:47.690Z,12.90
2018-04-07T05:10:50.940Z,13.02
2018-04-07T05:11:54.155Z,13.02
2018-04-07T05:12:57.395Z,11.77
2018-04-07T05:14:00.624Z,13.00
2018-04-07T05:15:03.900Z,13.30
2018-04-07T05:16:07.069Z,12.40
2018-04-07T05:17:10.742Z,11.85
2018-04-07T05:18:13.978Z,11.70
2018-04-07T05:19:17.185Z,12.25
2018-04-07T05:20:20.398Z,12.60
2018-04-07T05:21:23.610Z,13.52
2018-04-07T05:22:26.834Z,13.45
2018-04-07T05:23:30.835Z,12.37
2018-04-07T05:24:34.063Z,12.15
2018-04-07T05:25:37.272Z,13.30
2018-04-07T05:26:40.492Z,12.55
2018-04-07T05:27:43.710Z,12.68
2018-04-07T05:28:46.929Z,13.25
2018-04-07T05:29:50.930Z,13.70
2018-04-07T05:30:54.939Z,13.82
2018-04-07T05:31:58.909Z,12.73
2018-04-07T05:33:02.163Z,12.68
2018-04-07T05:34:05.400Z,11.70
2018-04-07T05:35:09.386Z,11.80
2018-04-07T05:36:12.609Z,12.45
2018-04-07T05:37:15.825Z,12.00
2018-04-07T05:38:19.064Z,13.07
2018-04-07T05:39:22.275Z,13.82
2018-04-07T05:40:25.607Z,13.50
2018-04-07T05:41:29.570Z,13.23
2018-04-07T05:42:32.812Z,12.50
2018-04-07T05:43:36.803Z,13.90
2018-04-07T05:44:40.891Z,12.73
2018-04-07T05:45:44.107Z,11.38
2018-04-07T05:46:47.336Z,13.60
2018-04-07T05:47:50.581Z,11.93
2018-04-07T05:48:53.807Z,11.73
2018-04-07T05:49:57.007Z,12.48
2018-04-07T05:51:01.024Z,13.02
2018-04-07T05:52:05.013Z,13.50
2018-04-07T05:53:09.005Z,12.48
2018-04-07T05:54:12.238Z,12.68
2018-04-07T05:55:15.464Z,11.82
2018-04-07T05:56:18.682Z,13.62
2018-04-07T05:57:21.967Z,12.68
2018-04-07T05:58:25.158Z,11.88
2018-04-07T05:59:28.395Z,13.02
2018-04-07T06:00:31.717Z,12.35
2018-04-07T06:01:35.693Z,11.82
2018-04-07T06:02:39.718Z,12.95
2018-04-07T06:03:42.903Z,12.30
2018-04-07T06:04:46.194Z,11.73
2018-04-07T06:05:49.487Z,13.02
2018-04-07T06:06:52.703Z,12.02
2018-04-07T06:07:55.931Z,11.00
2018-04-07T06:08:59.183Z,12.98
2018-04-07T06:10:02.399Z,10.57
2018-04-07T06:11:05.653Z,11.45
2018-04-07T06:12:08.873Z,11.98
2018-04-07T06:13:12.105Z,10.95
2018-04-07T06:14:15.412Z,12.65
2018-04-07T06:15:18.607Z,13.27
2018-04-07T06:16:22.610Z,12.73
2018-04-07T06:17:26.582Z,12.37
2018-04-07T06:18:29.795Z,12.40
2018-04-07T06:19:33.021Z,11.82
2018-04-07T06:20:36.352Z,10.20
2018-04-07T06:21:40.481Z,11.85
2018-04-07T06:22:43.689Z,11.15
2018-04-07T06:23:46.913Z,11.88
2018-04-07T06:24:50.910Z,11.98
2018-04-07T06:25:54.933Z,12.15
2018-04-07T06:26:58.924Z,11.73
2018-04-07T06:28:02.904Z,11.82
2018-04-07T06:29:06.884Z,11.98
2018-04-07T06:30:10.120Z,11.73
2018-04-07T06:31:13.367Z,11.10
2018-04-07T06:32:16.615Z,12.35
2018-04-07T06:33:19.821Z,12.57
2018-04-07T06:34:23.036Z,12.77
2018-04-07T06:35:27.038Z,12.13
2018-04-07T06:36:31.031Z,12.35
2018-04-07T06:37:35.021Z,12.15
2018-04-07T06:38:38.254Z,12.15
2018-04-07T06:39:41.467Z,11.18
2018-04-07T06:40:44.678Z,11.88
2018-04-07T06:41:47.983Z,11.73
2018-04-07T06:42:51.254Z,11.07
2018-04-07T06:43:55.241Z,11.77
2018-04-07T06:44:59.253Z,11.80
2018-04-07T06:46:03.245Z,11.88
2018-04-07T06:47:07.245Z,12.30
2018-04-07T06:48:10.465Z,11.12
2018-04-07T06:49:13.673Z,10.80
2018-04-07T06:50:16.890Z,11.55
2018-04-07T06:51:20.866Z,9.82
2018-04-07T06:52:24.097Z,11.05
2018-04-07T06:53:27.309Z,10.77
2018-04-07T06:54:30.531Z,11.00
2018-04-07T06:55:33.750Z,10.32
2018-04-07T06:56:36.961Z,11.00
2018-04-07T06:57:40.193Z,10.43
2018-04-07T06:58:44.180Z,10.25
2018-04-07T06:59:48.175Z,10.95
2018-04-07T07:00:51.401Z,11.48
2018-04-07T07:01:54.636Z,10.80
2018-04-07T07:02:57.856Z,11.23
2018-04-07T07:04:01.095Z,12.02
2018-04-07T07:05:04.325Z,11.90
2018-04-07T07:06:08.300Z,12.32
2018-04-07T07:07:12.311Z,12.40
2018-04-07T07:08:16.306Z,11.68
2018-04-07T07:09:19.512Z,10.95
2018-04-07T07:10:22.728Z,11.30
2018-04-07T07:11:25.960Z,11.82
2018-04-07T07:12:29.181Z,11.98
2018-04-07T07:13:32.435Z,11.32
2018-04-07T07:14:36.434Z,12.37
2018-04-07T07:15:39.706Z,11.95
2018-04-07T07:17:56.657Z,12.23
2018-04-07T07:18:59.859Z,13.05
2018-04-07T07:20:03.079Z,11.95
2018-04-07T07:21:07.106Z,11.77
2018-04-07T07:22:11.092Z,10.93
2018-04-07T07:23:15.071Z,11.25
2018-04-07T07:24:18.344Z,12.30
2018-04-07T07:25:21.557Z,11.55
2018-04-07T07:26:25.536Z,11.68
2018-04-07T07:27:28.756Z,10.45
2018-04-07T07:28:32.035Z,11.73
2018-04-07T07:29:36.048Z,11.68
2018-04-07T07:30:39.263Z,10.23
2018-04-07T07:31:42.475Z,11.23
2018-04-07T07:32:46.465Z,10.65
2018-04-07T07:33:49.706Z,10.77
2018-04-07T07:34:52.918Z,9.65
2018-04-07T07:35:56.152Z,10.55
2018-04-07T07:36:59.370Z,10.27
2018-04-07T07:38:02.607Z,10.80
2018-04-07T07:39:06.581Z,10.85
2018-04-07T07:40:09.823Z,10.45
2018-04-07T07:41:13.012Z,10.80
2018-04-07T07:42:16.249Z,9.65
2018-04-07T07:43:20.261Z,9.48
2018-04-07T07:44:23.661Z,11.35
2018-04-07T07:45:26.856Z,9.75
2018-04-07T07:46:30.100Z,10.93
2018-04-07T07:47:33.319Z,10.50
2018-04-07T07:48:36.617Z,9.27
2018-04-07T07:49:39.890Z,10.43
2018-04-07T07:50:43.107Z,10.05
2018-04-07T07:51:46.377Z,10.45
2018-04-07T07:52:49.595Z,11.20
2018-04-07T07:53:52.866Z,10.80
2018-04-07T07:54:56.081Z,10.57
2018-04-07T07:55:59.365Z,9.98
2018-04-07T07:57:02.612Z,10.02
2018-04-07T07:58:05.841Z,10.52
2018-04-07T07:59:09.073Z,10.38
2018-04-07T08:00:12.300Z,10.27
2018-04-07T08:01:15.552Z,11.75
2018-04-07T08:02:18.763Z,10.05
2018-04-07T08:03:21.967Z,9.70
2018-04-07T08:04:25.181Z,10.82
2018-04-07T08:05:29.174Z,10.32
2018-04-07T08:06:32.412Z,9.90
2018-04-07T08:07:35.685Z,10.90
2018-04-07T08:08:39.704Z,10.52
2018-04-07T08:09:42.916Z,9.93
2018-04-07T08:10:46.139Z,9.00
2018-04-07T08:11:50.132Z,10.15
2018-04-07T08:12:54.153Z,10.75
2018-04-07T08:13:58.132Z,10.85
2018-04-07T08:15:02.127Z,10.40
2018-04-07T08:16:05.343Z,10.60
2018-04-07T08:17:08.574Z,11.88
2018-04-07T08:18:11.786Z,10.23
2018-04-07T08:19:15.209Z,10.40
2018-04-07T08:20:18.435Z,9.45
2018-04-07T08:21:21.650Z,9.93
2018-04-07T08:22:25.632Z,10.35
2018-04-07T08:23:29.619Z,9.70
2018-04-07T08:24:32.867Z,9.38
2018-04-07T08:25:36.082Z,9.93
2018-04-07T08:26:39.301Z,10.27
2018-04-07T08:27:42.523Z,10.68
2018-04-07T08:28:45.736Z,9.52
2018-04-07T08:29:48.978Z,10.10
2018-04-07T08:30:52.212Z,9.32
2018-04-07T08:31:55.436Z,9.63
2018-04-07T08:32:58.648Z,9.40
2018-04-07T08:34:01.885Z,8.40
2018-04-07T08:35:05.106Z,8.80
2018-04-07T08:36:08.348Z,8.65
2018-04-07T08:37:14.829Z,9.65
2018-04-07T08:38:14.788Z,8.57
2018-04-07T08:39:18.043Z,8.93
2018-04-07T08:40:21.234Z,9.25
2018-04-07T08:41:24.469Z,9.02
2018-04-07T08:42:27.707Z,11.25
2018-04-07T08:43:30.934Z,9.20
2018-04-07T08:44:34.929Z,8.70
2018-04-07T08:45:38.381Z,9.90
2018-04-07T08:46:41.694Z,10.65
2018-04-07T08:47:44.956Z,8.63
2018-04-07T08:48:48.163Z,8.77
2018-04-07T08:49:52.188Z,9.38
2018-04-07T08:50:55.417Z,9.95
2018-04-07T08:51:58.625Z,9.07
2018-04-07T08:53:02.631Z,9.25
2018-04-07T08:54:05.849Z,9.15
2018-04-07T08:55:09.113Z,9.10
2018-04-07T08:56:12.338Z,8.60
2018-04-07T08:57:15.588Z,9.07
2018-04-07T08:58:18.781Z,10.38
2018-04-07T08:59:22.025Z,9.48
2018-04-07T09:00:26.016Z,10.48
2018-04-07T09:01:30.018Z,8.48
2018-04-07T09:02:34.007Z,8.02
2018-04-07T09:03:37.985Z,9.20
2018-04-07T09:04:41.233Z,9.10
2018-04-07T09:05:44.465Z,8.98
2018-04-07T09:06:47.695Z,9.15
2018-04-07T09:07:50.946Z,8.95
2018-04-07T09:08:54.931Z,9.07
2018-04-07T09:09:58.164Z,8.40
2018-04-07T09:11:02.131Z,8.85
2018-04-07T09:12:05.357Z,9.15
2018-04-07T09:13:08.569Z,9.25
2018-04-07T09:14:11.792Z,8.30
2018-04-07T09:15:15.047Z,8.57
2018-04-07T09:16:18.270Z,8.20
2018-04-07T09:17:22.242Z,8.18
2018-04-07T09:18:25.627Z,8.38
2018-04-07T09:19:29.654Z,7.97
2018-04-07T09:20:34.340Z,7.55
2018-04-07T09:21:38.376Z,8.20
2018-04-07T09:22:42.330Z,7.43
2018-04-07T09:23:45.543Z,7.50
2018-04-07T09:24:49.541Z,7.75
2018-04-07T09:25:53.527Z,7.50
2018-04-07T09:26:56.727Z,7.30
2018-04-07T09:28:00.029Z,7.50
2018-04-07T09:29:03.289Z,8.18
2018-04-07T09:30:07.319Z,7.78
2018-04-07T09:31:16.269Z,8.80
2018-04-07T09:32:19.595Z,6.97
2018-04-07T09:33:23.618Z,7.55
2018-04-07T09:34:27.585Z,8.80
2018-04-07T09:35:30.782Z,8.13
2018-04-07T09:36:34.180Z,7.20
2018-04-07T09:37:37.403Z,8.35
2018-04-07T09:38:40.633Z,7.60
2018-04-07T09:39:43.852Z,7.72
2018-04-07T09:40:47.311Z,8.15
2018-04-07T09:41:51.268Z,7.53
2018-04-07T09:42:54.480Z,8.40
2018-04-07T09:43:58.470Z,8.80
2018-04-07T09:45:01.681Z,7.90
2018-04-07T09:46:04.904Z,7.47
2018-04-07T09:47:08.143Z,7.55
2018-04-07T09:48:12.140Z,7.90
2018-04-07T09:49:16.088Z,7.68
2018-04-07T09:50:19.377Z,8.48
2018-04-07T09:51:22.588Z,7.82
2018-04-07T09:52:26.576Z,8.02
2018-04-07T09:53:29.796Z,7.87
2018-04-07T09:54:32.999Z,8.05
2018-04-07T09:55:36.237Z,7.90
2018-04-07T09:56:39.442Z,7.35
2018-04-07T09:57:42.651Z,7.65
2018-04-07T09:58:45.900Z,7.70
2018-04-07T09:59:49.969Z,7.85
2018-04-07T10:00:53.160Z,7.32
2018-04-07T10:01:59.095Z,8.35
2018-04-07T10:03:02.308Z,7.90
2018-04-07T10:04:06.317Z,7.45
2018-04-07T10:05:09.531Z,7.30
2018-04-07T10:06:12.724Z,7.55
2018-04-07T10:07:15.964Z,6.93
2018-04-07T10:08:19.229Z,6.28
2018-04-07T10:09:22.460Z,7.20
2018-04-07T10:10:25.666Z,6.80
2018-04-07T10:11:28.951Z,7.50
2018-04-07T10:12:32.185Z,7.32
2018-04-07T10:13:35.441Z,9.02
2018-04-07T10:14:38.635Z,6.53
2018-04-07T10:15:42.626Z,7.62
2018-04-07T10:16:45.877Z,7.70
2018-04-07T10:17:49.088Z,8.02
2018-04-07T10:18:53.067Z,8.93
2018-04-07T10:19:56.306Z,7.72
2018-04-07T10:20:59.572Z,7.18
2018-04-07T10:22:02.810Z,6.50
2018-04-07T10:23:06.041Z,7.65
2018-04-07T10:24:10.056Z,8.07
2018-04-07T10:25:13.314Z,7.45
2018-04-07T10:26:17.332Z,7.10
2018-04-07T10:27:21.331Z,6.45
2018-04-07T10:28:24.557Z,6.40
2018-04-07T10:29:27.852Z,7.07
2018-04-07T10:30:31.126Z,6.32
2018-04-07T10:31:34.369Z,6.53
2018-04-07T10:32:37.574Z,6.65
2018-04-07T10:33:40.976Z,7.00
2018-04-07T10:34:44.155Z,7.30
2018-04-07T10:35:47.435Z,5.90
2018-04-07T10:36:50.646Z,6.65
2018-04-07T10:37:53.858Z,8.20
2018-04-07T10:38:57.140Z,6.50
2018-04-07T10:40:01.107Z,6.35
2018-04-07T10:41:04.356Z,6.87
2018-04-07T10:42:07.586Z,7.22
2018-04-07T10:43:11.561Z,6.10
2018-04-07T10:44:15.613Z,7.72
2018-04-07T10:45:18.911Z,6.60
2018-04-07T10:46:22.161Z,6.85
2018-04-07T10:47:26.163Z,7.55
2018-04-07T10:48:30.227Z,6.37
2018-04-07T10:49:33.412Z,5.90
2018-04-07T10:50:37.426Z,6.93
2018-04-07T10:51:40.622Z,6.55
2018-04-07T10:52:44.641Z,6.35
2018-04-07T10:53:47.830Z,6.30
2018-04-07T10:54:51.056Z,6.78
2018-04-07T10:55:54.274Z,6.75
2018-04-07T10:56:58.253Z,5.97
2018-04-07T10:58:02.999Z,6.57
2018-04-07T10:59:06.970Z,5.40
2018-04-07T11:00:10.250Z,6.22
2018-04-07T11:01:13.469Z,5.75
2018-04-07T11:02:17.456Z,5.87
2018-04-07T11:03:21.484Z,5.10
2018-04-07T11:04:25.470Z,5.30
2018-04-07T11:05:28.665Z,6.10
2018-04-07T11:06:31.869Z,6.10
2018-04-07T11:07:35.076Z,5.90
2018-04-07T11:08:38.306Z,5.50
2018-04-07T11:09:41.505Z,6.43
2018-04-07T11:10:44.720Z,5.30
2018-04-07T11:11:47.931Z,5.95
2018-04-07T11:12:52.007Z,6.03
2018-04-07T11:13:55.203Z,4.93
2018-04-07T11:14:58.422Z,5.55
2018-04-07T11:16:01.643Z,5.32
2018-04-07T11:17:04.858Z,5.32
2018-04-07T11:18:08.077Z,5.95
2018-04-07T11:19:11.294Z,6.10
2018-04-07T11:20:14.511Z,6.78
2018-04-07T11:21:17.701Z,6.75
2018-04-07T11:22:21.684Z,6.03
2018-04-07T11:23:24.900Z,6.65
2018-04-07T11:24:28.133Z,8.25
2018-04-07T11:25:31.360Z,7.55
2018-04-07T11:26:35.319Z,6.28
2018-04-07T11:27:38.532Z,7.03
2018-04-07T11:28:42.519Z,6.53
2018-04-07T11:29:46.509Z,6.55
2018-04-07T11:30:49.824Z,6.80
2018-04-07T11:31:53.811Z,6.93
2018-04-07T11:32:57.783Z,6.78
2018-04-07T11:34:00.993Z,6.97
2018-04-07T11:35:04.984Z,7.55
2018-04-07T11:36:08.988Z,7.07
2018-04-07T11:37:12.973Z,7.50
2018-04-07T11:38:16.189Z,7.45
2018-04-07T11:39:20.204Z,10.85
2018-04-07T11:40:23.427Z,8.80
2018-04-07T11:41:26.659Z,11.20
2018-04-07T11:42:29.944Z,10.10
2018-04-07T11:43:33.952Z,8.35
2018-04-07T11:44:37.952Z,7.85
2018-04-07T11:45:41.170Z,7.45
2018-04-07T11:46:44.485Z,9.27
2018-04-07T11:47:47.676Z,7.25
2018-04-07T11:48:50.953Z,8.00
2018-04-07T11:49:55.753Z,8.02
2018-04-07T11:50:59.008Z,7.15
2018-04-07T11:52:02.239Z,8.00
2018-04-07T11:53:05.461Z,7.25
2018-04-07T11:54:08.695Z,7.90
2018-04-07T11:55:12.085Z,8.77
2018-04-07T11:56:15.490Z,6.80
2018-04-07T11:57:19.491Z,6.87
2018-04-07T11:58:22.786Z,8.05
2018-04-07T11:59:26.184Z,7.18
2018-04-07T12:00:30.177Z,8.98
2018-04-07T12:01:34.231Z,7.30
2018-04-07T12:02:37.497Z,7.32
2018-04-07T12:03:40.692Z,8.07
2018-04-07T12:04:43.904Z,8.25
2018-04-07T12:05:47.877Z,8.38
2018-04-07T12:06:51.080Z,7.03
2018-04-07T12:07:54.310Z,7.30
2018-04-07T12:08:57.562Z,8.05
2018-04-07T12:10:01.574Z,8.18
2018-04-07T12:11:05.577Z,8.00
2018-04-07T12:12:08.881Z,7.62
2018-04-07T12:13:12.225Z,8.15
2018-04-07T12:14:15.462Z,6.75
2018-04-07T12:15:18.689Z,6.85
2018-04-07T12:16:22.716Z,6.75
2018-04-07T12:17:26.724Z,7.20
2018-04-07T12:18:29.959Z,6.90
2018-04-07T12:19:33.214Z,8.40
2018-04-07T12:20:36.421Z,7.85
2018-04-07T12:21:40.445Z,7.62
2018-04-07T12:22:44.549Z,7.03
2018-04-07T12:23:47.808Z,7.87
2018-04-07T12:24:51.950Z,5.95
2018-04-07T12:25:55.211Z,7.53
2018-04-07T12:26:58.427Z,8.10
2018-04-07T12:28:01.847Z,7.62
2018-04-07T12:29:05.094Z,7.70
2018-04-07T12:30:09.138Z,7.37
2018-04-07T12:31:12.412Z,7.85
2018-04-07T12:32:15.606Z,8.27
2018-04-07T12:33:18.848Z,5.95
2018-04-07T12:34:22.138Z,7.55
2018-04-07T12:35:25.459Z,8.63
2018-04-07T12:36:28.678Z,7.53
2018-04-07T12:37:32.798Z,8.20
2018-04-07T12:38:36.847Z,7.15
2018-04-07T12:39:40.094Z,7.32
2018-04-07T12:40:44.141Z,6.45
2018-04-07T12:41:47.536Z,7.50
2018-04-07T12:42:50.815Z,6.80
2018-04-07T12:43:54.135Z,7.28
2018-04-07T12:44:58.152Z,7.18
2018-04-07T12:46:01.394Z,6.62
2018-04-07T12:47:04.793Z,8.63
2018-04-07T12:48:08.012Z,6.55
2018-04-07T12:49:11.265Z,7.70
2018-04-07T12:50:15.253Z,7.37
2018-04-07T12:51:18.484Z,8.65
2018-04-07T12:52:21.818Z,8.25
2018-04-07T12:53:25.025Z,7.85
2018-04-07T12:54:28.332Z,7.15
2018-04-07T12:55:31.604Z,8.13
2018-04-07T12:56:34.866Z,7.35
2018-04-07T12:57:38.901Z,6.45
2018-04-07T12:58:42.940Z,7.72
2018-04-07T12:59:46.208Z,7.70
2018-04-07T13:00:49.495Z,8.13
2018-04-07T13:01:52.833Z,7.03
2018-04-07T13:02:56.801Z,7.57
2018-04-07T13:04:00.087Z,6.72
2018-04-07T13:05:03.304Z,7.18
2018-04-07T13:06:06.503Z,7.53
2018-04-07T13:07:09.716Z,7.20
2018-04-07T13:08:12.928Z,7.43
2018-04-07T13:09:16.124Z,8.02
2018-04-07T13:10:19.361Z,7.30
2018-04-07T13:11:22.540Z,7.87
2018-04-07T13:12:25.758Z,7.50
2018-04-07T13:13:29.732Z,8.00
2018-04-07T13:14:32.939Z,6.87
2018-04-07T13:15:36.935Z,7.00
2018-04-07T13:16:40.119Z,7.53
2018-04-07T13:17:44.104Z,7.00
2018-04-07T13:18:47.327Z,7.47
2018-04-07T13:19:50.527Z,6.37
2018-04-07T13:20:53.736Z,7.95
2018-04-07T13:21:56.983Z,8.00
2018-04-07T13:23:00.181Z,7.80
2018-04-07T13:24:03.390Z,8.88
2018-04-07T13:25:06.625Z,7.55
2018-04-07T13:26:10.618Z,8.70
2018-04-07T13:27:14.585Z,8.57
2018-04-07T13:28:17.806Z,7.93
2018-04-07T13:29:21.003Z,8.10
2018-04-07T13:30:24.221Z,7.57
2018-04-07T13:31:27.467Z,8.75
2018-04-07T13:32:30.700Z,7.57
2018-04-07T13:33:38.527Z,7.45
2018-04-07T13:34:37.141Z,7.00
2018-04-07T13:35:40.486Z,8.00
2018-04-07T13:36:43.714Z,7.15
2018-04-07T13:37:46.930Z,8.00
2018-04-07T13:38:50.924Z,6.62
2018-04-07T13:39:54.904Z,6.57
2018-04-07T13:40:58.180Z,8.63
2018-04-07T13:42:01.361Z,7.70
2018-04-07T13:43:04.592Z,8.32
2018-04-07T13:44:07.832Z,7.22
2018-04-07T13:45:11.023Z,7.50
2018-04-07T13:46:14.242Z,8.30
2018-04-07T13:47:17.480Z,7.57
2018-04-07T13:48:20.714Z,8.07
2018-04-07T13:49:23.953Z,7.85
2018-04-07T13:50:27.183Z,7.07